Time;durP1;ratioP1;P1;durP2;ratioP2;P2;SDS_P1;SDS_P2;PMS_P1;PMS_P2;Temp;Humidity;BMP_temperature;BMP_pressure;BME280_temperature;BME280_humidity;BME280_pressure;Samples;Min_cycle;Max_cycle;Signal;HPM_P1;HPM_P2
2023/12/22 00:02:23;;;;;;;23.83;4.93;;;;;;;11.87;82.40;100946.75;5037699;28;20045;-65
2023/12/22 00:04:50;;;;;;;27.45;5.63;;;;;;;12.11;82.47;100949.19;5021389;28;20048;-66
2023/12/22 00:07:20;;;;;;;24.20;5.03;;;;;;;12.22;81.44;100953.31;5038261;28;20049;-66
2023/12/22 00:09:48;;;;;;;17.05;3.83;;;;;;;12.21;80.18;100957.19;5038052;28;20052;-66
2023/12/22 00:12:15;;;;;;;25.88;5.25;;;;;;;12.06;80.79;100963.13;5037332;28;20096;-65
2023/12/22 00:14:43;;;;;;;20.30;4.65;;;;;;;11.84;80.59;100958.44;5021586;28;20059;-65
2023/12/22 00:17:10;;;;;;;25.20;4.55;;;;;;;11.97;80.44;100965.03;5037435;28;20057;-65
2023/12/22 00:19:38;;;;;;;22.70;4.00;;;;;;;11.85;79.51;100959.28;5010274;28;20064;-66
2023/12/22 00:22:06;;;;;;;24.25;4.30;;;;;;;11.95;79.41;100942.44;5017723;28;20045;-65
2023/12/22 00:24:33;;;;;;;21.80;4.40;;;;;;;11.95;79.07;100929.44;5055584;28;20060;-65
2023/12/22 00:27:00;;;;;;;25.42;4.65;;;;;;;12.03;78.51;100936.16;5035049;28;20056;-66
2023/12/22 00:29:28;;;;;;;28.73;4.63;;;;;;;11.87;77.61;100940.44;5037616;28;20503;-65
2023/12/22 00:31:56;;;;;;;25.75;4.55;;;;;;;11.77;77.46;100943.50;5020576;28;20053;-65
2023/12/22 00:34:23;;;;;;;25.33;4.72;;;;;;;11.87;76.89;100932.97;5054685;28;20052;-65
2023/12/22 00:36:50;;;;;;;24.17;4.55;;;;;;;11.81;77.41;100925.97;5037639;28;20057;-66
2023/12/22 00:39:18;;;;;;;31.42;4.57;;;;;;;11.72;77.74;100916.00;5053162;28;20060;-66
2023/12/22 00:41:45;;;;;;;22.05;4.43;;;;;;;11.83;76.97;100920.13;5055639;28;20037;-66
2023/12/22 00:44:13;;;;;;;18.35;4.20;;;;;;;11.80;76.36;100938.13;5038068;28;20049;-65
2023/12/22 00:46:41;;;;;;;20.27;4.63;;;;;;;11.70;76.63;100918.28;5053440;28;20048;-65
2023/12/22 00:49:08;;;;;;;29.08;5.47;;;;;;;11.69;77.01;100914.69;5048281;28;20059;-66
2023/12/22 00:51:36;;;;;;;22.08;5.22;;;;;;;11.86;76.54;100919.50;5055287;28;20056;-64
2023/12/22 00:54:03;;;;;;;26.65;4.45;;;;;;;11.64;76.22;100911.22;5052706;28;20045;-66
2023/12/22 00:56:30;;;;;;;23.35;4.93;;;;;;;11.70;76.56;100918.28;5054473;28;20049;-65
2023/12/22 00:59:00;;;;;;;25.98;6.00;;;;;;;11.67;77.17;100936.28;5054871;28;20049;-66
2023/12/22 01:01:37;;;;;;;29.15;5.85;;;;;;;11.94;76.10;100935.28;5021701;28;20539;-62
2023/12/22 01:04:05;;;;;;;33.83;6.22;;;;;;;11.99;76.41;100932.41;5020247;28;20041;-62
2023/12/22 01:06:37;;;;;;;28.17;6.20;;;;;;;12.20;75.37;100939.00;5020687;28;20547;-61
2023/12/22 01:09:05;;;;;;;23.27;6.03;;;;;;;11.97;75.62;100929.13;5051660;28;20057;-62
2023/12/22 01:11:32;;;;;;;24.75;5.15;;;;;;;11.68;76.99;100926.06;5036893;28;20045;-62
2023/12/22 01:14:00;;;;;;;27.25;5.63;;;;;;;11.67;77.41;100929.94;5054834;28;20045;-62
2023/12/22 01:16:27;;;;;;;20.92;4.55;;;;;;;11.81;77.29;100934.25;5054377;28;20041;-62
2023/12/22 01:18:55;;;;;;;31.27;5.75;;;;;;;11.96;76.89;100949.59;5032600;28;20048;-61
2023/12/22 01:21:22;;;;;;;23.45;5.38;;;;;;;12.10;76.12;100955.84;4999973;28;20060;-62
2023/12/22 01:23:50;;;;;;;28.17;5.15;;;;;;;11.87;76.82;100941.25;5017257;28;20079;-63
2023/12/22 01:26:17;;;;;;;23.52;4.85;;;;;;;11.82;77.76;100957.16;5017296;28;20050;-61
2023/12/22 01:28:44;;;;;;;32.45;5.95;;;;;;;11.93;78.14;100952.97;5034479;28;20061;-62
2023/12/22 01:31:11;;;;;;;24.35;4.43;;;;;;;11.97;79.10;100948.47;5035768;28;20048;-62
2023/12/22 01:33:39;;;;;;;31.75;5.05;;;;;;;11.81;80.64;100941.72;5054836;28;20049;-60
2023/12/22 01:36:07;;;;;;;24.45;4.53;;;;;;;11.89;81.11;100932.69;5054226;28;20056;-62
2023/12/22 01:38:35;;;;;;;29.10;5.18;;;;;;;11.87;81.30;100943.22;5036404;28;20064;-61
2023/12/22 01:41:02;;;;;;;24.67;4.45;;;;;;;11.78;83.67;100939.59;5053813;28;20060;-61
2023/12/22 01:43:30;;;;;;;24.75;4.95;;;;;;;11.69;84.38;100944.22;5035701;28;20710;-61
2023/12/22 01:45:58;;;;;;;22.58;4.53;;;;;;;11.57;86.05;100935.69;5024999;28;20045;-62
2023/12/22 01:48:26;;;;;;;21.88;4.72;;;;;;;11.45;87.93;100927.16;5035670;28;20064;-62
2023/12/22 01:50:55;;;;;;;24.52;4.07;;;;;;;11.50;88.06;100935.31;5034875;28;20071;-61
2023/12/22 01:53:24;;;;;;;26.65;4.57;;;;;;;11.40;89.17;100919.84;5035066;28;20492;-61
2023/12/22 01:55:52;;;;;;;23.13;3.60;;;;;;;11.31;90.23;100921.72;5035304;28;20049;-62
2023/12/22 01:58:20;;;;;;;22.75;4.22;;;;;;;11.38;90.59;100920.13;5036575;28;20049;-62
2023/12/22 02:00:47;;;;;;;16.85;3.35;;;;;;;11.52;90.68;100924.78;5036640;28;20056;-61
2023/12/22 02:03:16;;;;;;;24.30;3.95;;;;;;;11.51;90.20;100929.47;5036165;28;20048;-63
2023/12/22 02:05:44;;;;;;;22.50;3.58;;;;;;;11.54;89.97;100942.63;5051570;28;20515;-62
2023/12/22 02:08:11;;;;;;;25.17;3.75;;;;;;;11.86;89.19;100958.13;5030442;28;20060;-61
2023/12/22 02:10:39;;;;;;;17.50;4.28;;;;;;;11.74;88.46;100960.66;5046456;28;20052;-62
2023/12/22 02:13:06;;;;;;;18.92;3.55;;;;;;;11.51;89.60;100970.84;5054208;28;20500;-61
2023/12/22 02:15:33;;;;;;;20.50;3.78;;;;;;;11.31;90.54;100965.84;5052396;28;20500;-62
2023/12/22 02:18:04;;;;;;;21.98;3.50;;;;;;;11.55;90.24;100971.03;5035566;28;20057;-61
2023/12/22 02:20:32;;;;;;;19.63;3.50;;;;;;;11.71;88.88;100958.53;5053158;28;20053;-62
2023/12/22 02:22:59;;;;;;;21.63;4.75;;;;;;;11.66;89.00;100951.22;5053825;28;20396;-62
2023/12/22 02:25:26;;;;;;;20.70;3.53;;;;;;;11.58;88.38;100960.19;5038437;28;20044;-61
2023/12/22 02:28:02;;;;;;;21.88;3.58;;;;;;;11.62;88.81;100982.47;5038752;28;20643;-61
2023/12/22 02:30:48;;;;;;;22.52;4.10;;;;;;;11.64;88.59;100981.06;5047782;28;20060;-61
2023/12/22 02:33:15;;;;;;;16.45;3.33;;;;;;;11.77;87.83;100980.16;5053738;28;20056;-61
2023/12/22 02:35:44;;;;;;;18.73;3.90;;;;;;;11.81;87.65;100986.69;5034084;28;20443;-62
2023/12/22 02:38:12;;;;;;;22.40;3.80;;;;;;;11.70;88.45;100988.06;5033174;28;20056;-62
2023/12/22 02:40:39;;;;;;;17.73;3.53;;;;;;;11.68;88.56;100986.75;5044555;28;20656;-62
2023/12/22 02:43:07;;;;;;;21.52;3.85;;;;;;;11.61;88.42;100987.16;5034774;28;20064;-62
2023/12/22 02:45:34;;;;;;;22.10;3.47;;;;;;;11.61;89.11;100978.88;5034878;28;20400;-61
2023/12/22 02:48:02;;;;;;;20.85;3.90;;;;;;;11.55;89.05;100980.16;5023603;28;20539;-61
2023/12/22 02:50:29;;;;;;;15.73;3.00;;;;;;;11.65;88.88;100987.38;5032602;28;20057;-61
2023/12/22 02:52:57;;;;;;;24.05;3.65;;;;;;;11.78;87.88;100986.50;5033042;28;20037;-62
2023/12/22 02:55:24;;;;;;;19.52;3.30;;;;;;;11.93;87.56;100975.06;5031402;28;20056;-62
2023/12/22 02:57:51;;;;;;;19.55;3.40;;;;;;;12.26;86.32;100979.13;5023970;28;20049;-61
2023/12/22 03:00:19;;;;;;;17.73;3.58;;;;;;;12.07;85.64;100978.53;5051875;28;20443;-60
2023/12/22 03:02:46;;;;;;;22.75;4.28;;;;;;;11.98;85.00;100972.16;5052496;28;20049;-63
2023/12/22 03:05:13;;;;;;;17.10;3.47;;;;;;;11.92;85.21;100965.97;5052531;28;20139;-61
2023/12/22 03:07:41;;;;;;;17.52;2.67;;;;;;;11.86;84.17;100956.19;5035044;28;20435;-61
2023/12/22 03:10:08;;;;;;;25.30;3.50;;;;;;;11.73;85.09;100959.84;5034651;28;20060;-61
2023/12/22 03:12:36;;;;;;;19.27;3.33;;;;;;;11.82;84.84;100954.41;5017822;28;20045;-61
2023/12/22 03:15:04;;;;;;;18.88;3.13;;;;;;;12.33;83.40;100954.63;5052119;28;20052;-62
2023/12/22 03:17:31;;;;;;;18.77;3.00;;;;;;;12.15;83.02;100956.50;5051768;28;20049;-62
2023/12/22 03:19:59;;;;;;;18.70;3.80;;;;;;;11.99;82.52;100941.50;5034582;28;20064;-61
2023/12/22 03:22:26;;;;;;;16.65;2.83;;;;;;;12.01;82.33;100944.72;5034419;28;20045;-61
2023/12/22 03:24:53;;;;;;;23.30;4.28;;;;;;;11.94;82.95;100946.34;5034168;28;20045;-61
2023/12/22 03:27:21;;;;;;;19.90;3.40;;;;;;;12.08;82.34;100950.63;5034417;28;20059;-62
2023/12/22 03:29:48;;;;;;;23.63;4.22;;;;;;;12.22;81.74;100953.31;5034826;28;20056;-62
2023/12/22 03:32:16;;;;;;;24.45;3.83;;;;;;;12.13;81.32;100956.00;5051057;28;20159;-61
2023/12/22 03:34:43;;;;;;;17.48;3.13;;;;;;;12.27;81.71;100955.91;5034129;28;20494;-61
2023/12/22 03:37:10;;;;;;;17.52;3.15;;;;;;;12.43;80.67;100949.63;5050620;28;20061;-61
2023/12/22 03:39:38;;;;;;;19.88;3.88;;;;;;;12.33;80.38;100960.97;5034223;28;20048;-61
2023/12/22 03:42:05;;;;;;;18.67;4.28;;;;;;;12.14;81.11;100956.81;5051801;28;20057;-61
2023/12/22 03:44:33;;;;;;;21.02;3.65;;;;;;;11.95;81.80;100959.81;5050684;28;20045;-63
2023/12/22 03:47:00;;;;;;;19.17;3.28;;;;;;;12.23;81.46;100965.97;5026582;28;20053;-63
2023/12/22 03:49:27;;;;;;;23.48;4.63;;;;;;;11.98;82.11;100963.88;5046598;28;20038;-62
2023/12/22 03:51:55;;;;;;;21.05;4.45;;;;;;;12.08;82.24;100950.63;5027307;28;20062;-62
2023/12/22 03:54:22;;;;;;;20.27;3.88;;;;;;;12.18;81.85;100957.81;5021012;28;20041;-62
2023/12/22 03:56:49;;;;;;;13.90;3.47;;;;;;;12.06;81.94;100947.38;5050271;28;20490;-62
2023/12/22 03:59:18;;;;;;;12.98;2.80;;;;;;;12.40;81.25;100949.44;5031452;28;20524;-63
2023/12/22 04:01:53;;;;;;;18.58;3.47;;;;;;;12.35;81.25;100953.19;5032432;28;20056;-61
2023/12/22 04:04:22;;;;;;;19.92;3.00;;;;;;;12.59;79.77;100955.53;5014490;28;20048;-62
2023/12/22 04:06:50;;;;;;;13.20;2.83;;;;;;;12.41;81.05;100956.63;5030869;28;20050;-62
2023/12/22 04:09:17;;;;;;;19.90;3.25;;;;;;;12.23;81.76;100968.72;5014580;28;20045;-62
2023/12/22 04:11:45;;;;;;;14.63;2.78;;;;;;;12.02;84.22;100974.00;5030476;28;20052;-62
2023/12/22 04:14:12;;;;;;;20.15;3.33;;;;;;;11.78;85.53;100984.56;5014144;28;20049;-62
2023/12/22 04:16:40;;;;;;;14.90;2.90;;;;;;;11.72;87.94;100982.22;5029880;28;20056;-61
2023/12/22 04:19:07;;;;;;;22.45;3.28;;;;;;;11.88;88.65;100975.19;5013867;28;20046;-61
2023/12/22 04:21:38;;;;;;;12.80;2.78;;;;;;;11.84;89.68;100966.72;5031015;28;20049;-61
2023/12/22 04:24:06;;;;;;;15.60;3.05;;;;;;;11.78;90.92;100962.50;5014077;28;20401;-61
2023/12/22 04:26:33;;;;;;;16.17;2.35;;;;;;;11.82;92.10;100968.19;5030263;28;20045;-63
2023/12/22 04:29:00;;;;;;;15.07;3.17;;;;;;;11.64;93.89;100964.50;5030832;28;20049;-62
2023/12/22 04:31:28;;;;;;;17.85;3.55;;;;;;;11.69;95.52;100964.38;4997692;28;20057;-61
2023/12/22 04:33:55;;;;;;;17.10;2.72;;;;;;;11.66;96.14;100964.19;5013906;28;20665;-61
2023/12/22 04:36:23;;;;;;;14.13;2.45;;;;;;;11.37;98.20;100969.31;5032121;28;20050;-62
2023/12/22 04:38:50;;;;;;;17.25;3.15;;;;;;;11.39;99.82;100951.28;5013832;28;20068;-61
2023/12/22 04:41:18;;;;;;;12.95;2.67;;;;;;;11.47;99.80;100950.56;5031834;28;20054;-61
2023/12/22 04:43:45;;;;;;;18.98;2.70;;;;;;;11.51;99.78;100950.72;5014245;28;20050;-60
2023/12/22 04:46:12;;;;;;;14.63;2.58;;;;;;;11.58;100.00;100957.44;5017631;28;20046;-61
2023/12/22 04:48:39;;;;;;;11.98;2.42;;;;;;;11.59;99.52;100967.38;5034943;28;20060;-62
2023/12/22 04:51:07;;;;;;;18.00;3.10;;;;;;;11.30;100.00;100964.19;5043314;28;20057;-61
2023/12/22 04:53:34;;;;;;;15.85;2.53;;;;;;;11.44;100.00;100967.72;5002091;28;20064;-64
2023/12/22 04:56:02;;;;;;;15.20;2.53;;;;;;;11.32;100.00;100951.75;5035147;28;20057;-61
2023/12/22 04:58:29;;;;;;;12.27;2.00;;;;;;;11.31;100.00;100968.59;5022633;28;20049;-62
2023/12/22 05:00:57;;;;;;;16.85;2.53;;;;;;;11.46;100.00;100959.13;5016883;28;20045;-61
2023/12/22 05:03:24;;;;;;;12.88;2.58;;;;;;;11.47;100.00;100953.31;5034713;28;20052;-63
2023/12/22 05:05:51;;;;;;;14.27;2.42;;;;;;;11.52;100.00;100952.38;5053815;28;20055;-61
2023/12/22 05:08:19;;;;;;;11.80;2.60;;;;;;;11.60;99.37;100957.94;5053284;28;20060;-60
2023/12/22 05:10:46;;;;;;;11.35;2.00;;;;;;;11.61;99.64;100965.06;5053809;28;20057;-61
2023/12/22 05:13:13;;;;;;;11.98;2.47;;;;;;;11.46;100.00;100967.41;5053875;28;20064;-61
2023/12/22 05:15:41;;;;;;;12.38;2.20;;;;;;;11.28;100.00;100967.28;5019098;28;20045;-61
2023/12/22 05:18:08;;;;;;;14.15;2.47;;;;;;;11.32;100.00;100971.03;5054565;28;20056;-62
2023/12/22 05:20:36;;;;;;;18.02;3.28;;;;;;;11.35;100.00;100967.66;5054171;28;20072;-61
2023/12/22 05:23:03;;;;;;;13.85;2.47;;;;;;;11.38;100.00;100961.50;5019819;28;20060;-61
2023/12/22 05:25:30;;;;;;;19.08;2.38;;;;;;;11.48;100.00;100954.94;5035865;28;20048;-62
2023/12/22 05:27:58;;;;;;;13.45;2.15;;;;;;;11.59;100.00;100958.25;5036763;28;20049;-62
2023/12/22 05:30:25;;;;;;;13.80;2.15;;;;;;;11.87;100.00;100957.00;5029235;28;20054;-61
2023/12/22 05:32:54;;;;;;;11.88;1.95;;;;;;;11.77;99.18;100966.34;5016756;28;20053;-62
2023/12/22 05:35:21;;;;;;;11.40;1.73;;;;;;;11.79;98.52;100957.75;5033556;28;20045;-61
2023/12/22 05:37:49;;;;;;;12.10;2.15;;;;;;;11.58;99.14;100960.19;5000549;28;20049;-62
2023/12/22 05:40:17;;;;;;;11.13;1.85;;;;;;;11.34;100.00;100956.94;5000461;28;20061;-61
2023/12/22 05:42:44;;;;;;;9.57;1.17;;;;;;;11.32;100.00;100953.66;5016564;28;20064;-62
2023/12/22 05:45:12;;;;;;;10.90;1.42;;;;;;;11.42;100.00;100955.38;5038414;28;20048;-61
2023/12/22 05:47:39;;;;;;;8.98;1.40;;;;;;;11.42;100.00;100963.66;5053614;28;20060;-62
2023/12/22 05:50:07;;;;;;;8.20;1.70;;;;;;;11.52;100.00;100953.19;5052441;28;20056;-62
2023/12/22 05:52:35;;;;;;;8.60;1.67;;;;;;;11.66;100.00;100956.72;5027403;28;20056;-62
2023/12/22 05:55:03;;;;;;;11.07;1.65;;;;;;;11.64;100.00;100955.38;5035668;28;20056;-62
2023/12/22 05:57:30;;;;;;;8.07;1.55;;;;;;;11.54;100.00;100950.91;5053683;28;20045;-62
2023/12/22 05:59:58;;;;;;;11.23;1.75;;;;;;;11.48;100.00;100954.94;5035256;28;20080;-63
2023/12/22 06:02:25;;;;;;;6.88;1.20;;;;;;;11.48;100.00;100954.94;5054097;28;20068;-61
2023/12/22 06:04:53;;;;;;;7.60;1.50;;;;;;;11.49;100.00;100953.78;5002079;28;20045;-63
2023/12/22 06:07:20;;;;;;;10.35;1.58;;;;;;;11.44;100.00;100950.38;5036008;28;20263;-61
2023/12/22 06:09:47;;;;;;;7.68;1.33;;;;;;;11.48;100.00;100963.22;5018837;28;20049;-61
2023/12/22 06:12:15;;;;;;;9.68;1.77;;;;;;;11.51;100.00;100950.72;5018525;28;20053;-63
2023/12/22 06:14:42;;;;;;;8.32;1.52;;;;;;;11.44;100.00;100961.41;5053274;28;20373;-61
2023/12/22 06:17:09;;;;;;;7.28;1.55;;;;;;;11.39;100.00;100959.56;5035314;28;20061;-62
2023/12/22 06:19:37;;;;;;;10.52;1.30;;;;;;;11.47;100.00;100955.25;5034752;28;20408;-61
2023/12/22 06:22:07;;;;;;;9.13;1.55;;;;;;;11.31;100.00;100957.56;5036159;28;20060;-61
2023/12/22 06:24:36;;;;;;;8.68;1.30;;;;;;;11.47;100.00;100964.34;5003713;28;20051;-61
2023/12/22 06:27:03;;;;;;;10.27;1.35;;;;;;;11.45;100.00;100965.78;5052306;28;20061;-62
2023/12/22 06:29:31;;;;;;;11.80;1.67;;;;;;;11.52;100.00;100977.19;5051849;28;20052;-61
2023/12/22 06:31:58;;;;;;;5.22;1.33;;;;;;;11.51;100.00;100975.53;5032650;28;20050;-61
2023/12/22 06:34:26;;;;;;;9.63;1.63;;;;;;;11.47;100.00;100975.38;5031811;28;20045;-62
2023/12/22 06:36:54;;;;;;;12.80;1.92;;;;;;;11.51;100.00;100970.84;5015922;28;20053;-62
2023/12/22 06:39:25;;;;;;;11.82;1.85;;;;;;;11.46;100.00;100964.63;5015926;28;20057;-63
2023/12/22 06:41:54;;;;;;;9.80;1.83;;;;;;;11.36;100.00;100971.22;5016048;28;20045;-61
2023/12/22 06:44:26;;;;;;;9.48;1.50;;;;;;;11.29;100.00;100966.16;4999819;28;20054;-64
2023/12/22 06:46:53;;;;;;;12.18;1.50;;;;;;;11.33;100.00;100961.63;5050196;28;20056;-63
2023/12/22 06:49:21;;;;;;;11.25;1.52;;;;;;;11.38;100.00;100954.38;4999225;28;20053;-63
2023/12/22 06:51:49;;;;;;;16.52;1.58;;;;;;;11.45;100.00;100961.09;5030265;28;20046;-64
2023/12/22 06:54:16;;;;;;;11.15;1.90;;;;;;;11.59;100.00;100952.75;4982230;28;20057;-62
2023/12/22 06:56:45;;;;;;;10.88;1.70;;;;;;;11.70;100.00;100949.44;5015969;28;20408;-64
2023/12/22 06:59:13;;;;;;;13.40;1.65;;;;;;;11.78;100.00;100948.69;5035178;28;20578;-62
2023/12/22 07:01:43;;;;;;;;;;;;;;;11.91;100.00;100941.44;5051898;28;20048;-64
2023/12/22 07:04:29;;;;;;;9.88;1.83;;;;;;;11.77;100.00;100949.81;5043906;28;19921;-63
2023/12/22 07:06:57;;;;;;;13.45;2.15;;;;;;;11.73;100.00;100945.25;5036272;28;20055;-62
2023/12/22 07:09:24;;;;;;;7.65;2.03;;;;;;;11.68;100.00;100937.88;5045693;28;20052;-63
2023/12/22 07:11:55;;;;;;;10.27;1.70;;;;;;;11.65;100.00;100937.69;5041941;28;20053;-62
2023/12/22 07:14:24;;;;;;;16.35;1.75;;;;;;;11.60;100.00;100940.56;5014389;28;20053;-62
2023/12/22 07:16:52;;;;;;;12.18;2.00;;;;;;;11.57;100.00;100939.25;5032626;28;20048;-62
2023/12/22 07:19:19;;;;;;;8.85;1.35;;;;;;;11.37;100.00;100939.75;5039951;28;20080;-61
2023/12/22 07:21:47;;;;;;;9.95;1.98;;;;;;;11.26;100.00;100954.94;5034900;28;20041;-62
2023/12/22 07:24:25;;;;;;;7.63;1.50;;;;;;;11.32;100.00;100951.75;5021513;28;20056;-61
2023/12/22 07:26:53;;;;;;;9.25;1.65;;;;;;;11.25;100.00;100951.34;5050563;28;20041;-65
2023/12/22 07:29:21;;;;;;;9.57;1.63;;;;;;;11.31;100.00;100954.81;5069031;28;20515;-65
2023/12/22 07:31:51;;;;;;;9.35;1.77;;;;;;;11.47;100.00;100956.09;5052370;28;20059;-66
2023/12/22 07:34:18;;;;;;;10.07;1.80;;;;;;;11.35;100.00;100966.81;5014285;28;20046;-64
2023/12/22 07:36:46;;;;;;;8.75;1.20;;;;;;;11.25;100.00;100967.91;5046714;28;20040;-64
2023/12/22 07:39:26;;;;;;;9.50;1.88;;;;;;;11.44;100.00;100969.69;5034997;28;20060;-66
2023/12/22 07:41:53;;;;;;;11.90;1.80;;;;;;;11.50;100.00;100979.44;5033206;28;20053;-65
2023/12/22 07:44:20;;;;;;;7.72;1.52;;;;;;;11.54;100.00;100981.25;5050593;28;20472;-64
2023/12/22 07:46:57;;;;;;;8.35;1.40;;;;;;;11.47;100.00;100989.19;5048988;28;20041;-65
2023/12/22 07:49:26;;;;;;;12.90;1.85;;;;;;;11.38;100.00;100989.09;5015218;28;20050;-65
2023/12/22 07:51:56;;;;;;;6.55;1.38;;;;;;;11.49;100.00;100991.63;5023813;28;20060;-65
2023/12/22 07:54:23;;;;;;;8.40;1.65;;;;;;;11.45;100.00;100999.72;5045640;28;20061;-68
2023/12/22 07:56:52;;;;;;;7.28;1.65;;;;;;;11.48;100.00;100995.50;5032446;28;20794;-65
2023/12/22 07:59:19;;;;;;;7.38;1.60;;;;;;;11.46;100.00;101004.09;5031938;28;20096;-64
2023/12/22 08:02:00;;;;;;;5.35;1.45;;;;;;;11.30;100.00;100998.13;5034783;28;20048;-65
2023/12/22 08:04:32;;;;;;;6.35;1.38;;;;;;;11.35;100.00;100995.22;4996654;28;20053;-64
2023/12/22 08:07:00;;;;;;;6.35;1.10;;;;;;;11.75;100.00;101003.69;5013927;28;20061;-65
2023/12/22 08:09:27;;;;;;;4.55;1.05;;;;;;;11.60;100.00;101004.03;5031992;28;20057;-67
2023/12/22 08:11:56;;;;;;;2.53;0.90;;;;;;;11.48;100.00;101010.09;5013806;28;20448;-65
2023/12/22 08:14:24;;;;;;;6.88;1.00;;;;;;;11.55;100.00;101012.41;5032237;28;20140;-64
2023/12/22 08:16:52;;;;;;;3.60;1.10;;;;;;;11.54;100.00;101017.13;5032218;28;20381;-65
2023/12/22 08:19:20;;;;;;;3.53;1.10;;;;;;;11.30;100.00;101024.88;5021468;28;20069;-65
2023/12/22 08:21:49;;;;;;;8.23;2.20;;;;;;;11.38;100.00;101015.88;5035218;28;20042;-66
2023/12/22 08:24:18;;;;;;;7.63;1.73;;;;;;;11.46;100.00;101017.88;5034218;28;20057;-66
2023/12/22 08:26:50;;;;;;;6.80;2.40;;;;;;;11.37;100.00;101018.94;5018889;28;20644;-65
2023/12/22 08:29:20;;;;;;;9.95;2.90;;;;;;;11.44;100.00;101031.16;5034088;28;20390;-65
2023/12/22 08:31:48;;;;;;;10.05;2.72;;;;;;;11.55;100.00;101032.56;5054630;28;20058;-65
2023/12/22 08:34:16;;;;;;;8.10;2.80;;;;;;;11.51;100.00;101012.22;5054325;28;20052;-66
2023/12/22 08:36:43;;;;;;;10.70;2.75;;;;;;;11.55;100.00;101012.41;5037914;28;20064;-64
2023/12/22 08:39:12;;;;;;;11.15;2.10;;;;;;;11.57;100.00;101012.94;5055641;28;20053;-65
2023/12/22 08:41:39;;;;;;;11.55;2.75;;;;;;;11.74;100.00;101010.31;5055830;28;20052;-62
2023/12/22 08:44:07;;;;;;;18.00;3.42;;;;;;;11.86;100.00;101016.09;5054312;28;20049;-64
2023/12/22 08:46:35;;;;;;;9.02;2.40;;;;;;;11.65;100.00;101024.06;5041187;28;20045;-66
2023/12/22 08:49:02;;;;;;;12.65;2.22;;;;;;;11.58;100.00;101023.66;5043703;28;20054;-65
2023/12/22 08:51:30;;;;;;;8.60;2.03;;;;;;;11.49;100.00;101016.44;5050579;28;20068;-65
2023/12/22 08:53:58;;;;;;;7.43;1.27;;;;;;;11.63;100.00;101028.25;5053884;28;20049;-65
2023/12/22 08:56:26;;;;;;;6.47;1.27;;;;;;;11.38;100.00;101029.66;5053901;28;20052;-66
2023/12/22 08:58:54;;;;;;;7.32;1.45;;;;;;;11.71;100.00;101030.28;5037519;28;20053;-64
2023/12/22 09:01:22;;;;;;;10.43;2.03;;;;;;;11.74;100.00;101019.44;5037636;28;20056;-64
2023/12/22 09:03:50;;;;;;;7.00;1.40;;;;;;;11.64;100.00;101024.34;5037082;28;20080;-67
2023/12/22 09:06:19;;;;;;;6.70;1.60;;;;;;;11.63;100.00;101042.84;5054805;28;20049;-66
2023/12/22 09:08:46;;;;;;;8.25;1.98;;;;;;;11.69;100.00;101047.16;5053028;28;20053;-66
2023/12/22 09:11:17;;;;;;;6.18;1.30;;;;;;;11.64;100.00;101039.00;5054523;28;20049;-65
2023/12/22 09:13:45;;;;;;;6.07;1.58;;;;;;;11.78;100.00;101037.00;5053379;28;20389;-65
2023/12/22 09:16:15;;;;;;;11.05;1.50;;;;;;;11.80;100.00;101042.19;5037214;28;20041;-64
2023/12/22 09:18:42;;;;;;;;;;;;;;;11.91;100.00;101032.53;5053286;28;20500;-65
2023/12/22 09:21:10;;;;;;;9.35;1.10;;;;;;;11.73;100.00;101028.84;5035065;28;19925;-65
2023/12/22 09:23:37;;;;;;;6.13;1.08;;;;;;;11.81;100.00;101038.31;5036396;28;20049;-64
2023/12/22 09:26:05;;;;;;;7.75;1.27;;;;;;;11.82;100.00;101034.44;5045518;28;20065;-64
2023/12/22 09:28:32;;;;;;;11.13;1.73;;;;;;;11.94;100.00;101041.00;5035500;28;20057;-66
2023/12/22 09:31:01;;;;;;;17.42;4.00;;;;;;;11.85;100.00;101066.91;5035300;28;20056;-64
2023/12/22 09:33:29;;;;;;;11.20;1.88;;;;;;;11.56;100.00;101066.50;5053418;28;20060;-64
2023/12/22 09:36:43;;;;;;;10.10;2.03;;;;;;;11.44;100.00;101060.69;5068440;28;20052;-65
2023/12/22 09:39:20;;;;;;;10.40;3.20;;;;;;;11.51;100.00;101061.88;4973173;28;20521;-65
2023/12/22 09:41:54;;;;;;;9.88;1.98;;;;;;;11.51;100.00;101061.06;4973373;28;20078;-65
2023/12/22 09:44:22;;;;;;;6.45;1.77;;;;;;;11.56;100.00;101061.75;5041611;28;20099;-65
2023/12/22 09:47:21;;;;;;;6.35;1.45;;;;;;;11.10;100.00;101072.19;5055922;28;20052;-65
2023/12/22 09:50:03;;;;;;;13.45;1.80;;;;;;;11.38;100.00;101060.00;5033823;28;20049;-65
2023/12/22 09:52:31;;;;;;;11.88;1.90;;;;;;;11.34;100.00;101068.06;4999778;28;20061;-66
2023/12/22 09:54:59;;;;;;;8.98;1.85;;;;;;;11.40;100.00;101067.97;5015513;28;20076;-65
2023/12/22 09:57:27;;;;;;;3.92;0.80;;;;;;;11.11;100.00;101071.06;5054200;28;20041;-65
2023/12/22 09:59:55;;;;;;;5.32;1.25;;;;;;;11.34;100.00;101072.75;5020541;28;20056;-62
2023/12/22 10:02:25;;;;;;;5.05;0.90;;;;;;;11.38;100.00;101069.06;5037532;28;20049;-62
2023/12/22 10:04:55;;;;;;;4.22;1.13;;;;;;;11.45;100.00;101071.44;5053536;28;20523;-62
2023/12/22 10:07:23;;;;;;;7.78;1.20;;;;;;;11.65;100.00;101070.97;5053011;28;20049;-63
2023/12/22 10:09:52;;;;;;;5.57;1.00;;;;;;;11.77;100.00;101071.22;5035177;28;20522;-62
2023/12/22 10:12:19;;;;;;;6.40;1.20;;;;;;;11.80;100.00;101073.34;5036006;28;20075;-62
2023/12/22 10:14:47;;;;;;;6.00;1.00;;;;;;;11.73;100.00;101075.75;5035475;28;20392;-63
2023/12/22 10:17:15;;;;;;;5.72;1.38;;;;;;;11.81;100.00;101072.25;5035553;28;20064;-62
2023/12/22 10:19:42;;;;;;;9.30;1.70;;;;;;;11.66;100.00;101066.28;5042558;28;20049;-63
2023/12/22 10:22:10;;;;;;;5.85;1.50;;;;;;;11.83;100.00;101063.66;5054181;28;20048;-62
2023/12/22 10:24:53;;;;;;;9.98;1.63;;;;;;;11.90;100.00;101072.31;5035684;28;20044;-64
2023/12/22 10:27:53;;;;;;;5.78;1.42;;;;;;;11.96;100.00;101071.06;5049403;28;20053;-62
2023/12/22 10:30:22;;;;;;;14.63;4.07;;;;;;;12.12;100.00;101070.34;5047591;28;20101;-61
2023/12/22 10:33:10;;;;;;;6.32;1.25;;;;;;;11.96;99.71;101071.84;5035068;28;20056;-63
2023/12/22 10:36:14;;;;;;;8.35;1.35;;;;;;;11.85;100.00;101064.97;5059909;28;20629;-62
2023/12/22 10:38:57;;;;;;;9.13;1.63;;;;;;;12.11;99.64;101067.91;5052248;28;20049;-65
2023/12/22 10:41:24;;;;;;;6.93;1.73;;;;;;;11.96;99.82;101074.63;5034464;28;20053;-65
2023/12/22 10:43:52;;;;;;;8.35;1.80;;;;;;;11.96;99.57;101079.34;5036113;28;20060;-65
2023/12/22 10:46:20;;;;;;;11.15;2.47;;;;;;;11.69;100.00;101076.69;5034144;28;20045;-66
2023/12/22 10:48:47;;;;;;;9.82;2.20;;;;;;;11.65;100.00;101075.66;5051036;28;20045;-66
2023/12/22 10:51:15;;;;;;;14.55;2.65;;;;;;;11.57;100.00;101068.94;5052407;28;20045;-65
2023/12/22 10:53:42;;;;;;;12.95;2.45;;;;;;;11.65;100.00;101067.38;5070869;28;20045;-67
2023/12/22 10:56:10;;;;;;;16.50;3.00;;;;;;;11.91;100.00;101054.59;5062719;28;20053;-66
2023/12/22 10:58:39;;;;;;;12.02;2.00;;;;;;;11.91;100.00;101043.56;5032138;28;20064;-65
2023/12/22 11:01:07;;;;;;;11.63;2.05;;;;;;;11.77;100.00;101062.16;5051880;28;20052;-65
2023/12/22 11:03:39;;;;;;;13.48;2.40;;;;;;;11.61;100.00;101058.88;5047337;28;20053;-66
2023/12/22 11:06:10;;;;;;;15.20;3.72;;;;;;;11.65;100.00;101037.03;5049758;28;20048;-66
2023/12/22 11:08:40;;;;;;;13.07;2.55;;;;;;;11.55;100.00;101051.03;5052409;28;20048;-65
2023/12/22 11:11:16;;;;;;;14.27;2.60;;;;;;;11.60;100.00;101051.75;5052040;28;20052;-65
2023/12/22 11:13:43;;;;;;;9.82;1.80;;;;;;;11.44;100.00;101035.88;5052672;28;20052;-65
2023/12/22 11:16:11;;;;;;;12.45;2.65;;;;;;;11.36;100.00;101042.94;5051942;28;20049;-66
2023/12/22 11:18:39;;;;;;;15.68;2.80;;;;;;;11.41;100.00;101040.06;5052546;28;20052;-65
2023/12/22 11:21:07;;;;;;;15.07;3.42;;;;;;;11.38;100.00;101026.91;5034247;28;20045;-65
2023/12/22 11:23:36;;;;;;;13.27;2.50;;;;;;;11.40;100.00;101035.69;5034772;28;20116;-67
2023/12/22 11:26:04;;;;;;;14.88;3.20;;;;;;;11.48;100.00;101021.13;5052198;28;20053;-65